createdAt,value
2019-04-27T00:00:45.548Z,48.00
2019-04-27T00:03:06.131Z,53.80
2019-04-27T00:05:35.463Z,53.80
2019-04-27T00:07:56.235Z,59.93
2019-04-27T00:10:05.593Z,53.80
2019-04-27T00:12:22.499Z,55.80
2019-04-27T00:14:34.181Z,61.35
2019-04-27T00:16:56.756Z,72.35
2019-04-27T00:19:18.336Z,73.95
2019-04-27T00:21:34.058Z,51.02
2019-04-27T00:23:45.028Z,45.92
2019-04-27T00:25:55.604Z,46.70
2019-04-27T00:28:05.531Z,55.03
2019-04-27T00:30:17.494Z,56.58
2019-04-27T00:32:26.651Z,50.70
2019-04-27T00:34:38.818Z,43.85
2019-04-27T00:37:03.573Z,50.38
2019-04-27T00:39:36.509Z,53.73
2019-04-27T00:41:50.127Z,64.77
2019-04-27T00:44:04.292Z,56.68
2019-04-27T00:46:25.550Z,55.28
2019-04-27T00:48:33.338Z,66.17
2019-04-27T00:50:44.587Z,65.20
2019-04-27T00:52:53.704Z,50.65
2019-04-27T00:55:03.471Z,56.33
2019-04-27T00:57:14.752Z,54.35
2019-04-27T00:59:34.651Z,59.48
2019-04-27T01:01:47.320Z,45.73
2019-04-27T01:04:05.660Z,57.03
2019-04-27T01:06:19.964Z,48.25
2019-04-27T01:08:29.261Z,54.05
2019-04-27T01:10:40.783Z,61.80
2019-04-27T01:12:55.487Z,50.92
2019-04-27T01:15:13.563Z,51.50
2019-04-27T01:17:23.556Z,53.98
2019-04-27T01:19:36.922Z,50.23
2019-04-27T01:21:49.696Z,47.20
2019-04-27T01:24:00.624Z,59.85
2019-04-27T01:26:24.694Z,54.15
2019-04-27T01:28:45.246Z,43.20
2019-04-27T01:30:58.899Z,48.87
2019-04-27T01:33:12.051Z,46.77
2019-04-27T01:35:23.195Z,59.18
2019-04-27T01:37:34.062Z,65.70
2019-04-27T01:39:43.618Z,51.98
2019-04-27T01:41:56.831Z,57.90
2019-04-27T01:44:09.515Z,48.33
2019-04-27T01:46:19.571Z,60.45
2019-04-27T01:48:30.536Z,58.28
2019-04-27T01:50:39.609Z,54.35
2019-04-27T01:52:50.395Z,50.00
2019-04-27T01:55:00.303Z,48.78
2019-04-27T01:57:13.448Z,53.60
2019-04-27T01:59:24.317Z,55.40
2019-04-27T02:01:41.300Z,48.55
2019-04-27T02:04:09.152Z,50.45
2019-04-27T02:06:21.420Z,56.30
2019-04-27T02:08:36.636Z,48.98
2019-04-27T02:10:50.239Z,43.33
2019-04-27T02:13:00.497Z,48.98
2019-04-27T02:15:12.464Z,45.48
2019-04-27T02:17:29.742Z,44.15
2019-04-27T02:19:39.342Z,45.80
2019-04-27T02:21:55.077Z,49.10
2019-04-27T02:24:05.481Z,42.10
2019-04-27T02:26:16.791Z,48.80
2019-04-27T02:28:40.518Z,49.95
2019-04-27T02:31:02.047Z,48.10
2019-04-27T02:33:20.311Z,57.70
2019-04-27T02:35:30.142Z,53.08
2019-04-27T02:37:40.303Z,47.65
2019-04-27T02:39:50.325Z,39.05
2019-04-27T02:42:02.176Z,49.03
2019-04-27T02:44:24.910Z,47.65
2019-04-27T02:46:39.592Z,47.65
2019-04-27T02:48:57.732Z,38.92
2019-04-27T02:51:11.284Z,48.45
2019-04-27T02:53:33.219Z,39.88
2019-04-27T02:55:43.921Z,43.60
2019-04-27T02:57:53.482Z,56.80
2019-04-27T03:00:03.693Z,49.85
2019-04-27T03:02:36.608Z,49.00
2019-04-27T03:04:46.784Z,50.20
2019-04-27T03:07:00.366Z,41.35
2019-04-27T03:09:10.607Z,43.70
2019-04-27T03:11:23.462Z,49.75
2019-04-27T03:13:33.603Z,49.23
2019-04-27T03:15:53.869Z,49.40
2019-04-27T03:18:19.424Z,41.33
2019-04-27T03:20:32.948Z,39.13
2019-04-27T03:22:46.783Z,41.23
2019-04-27T03:25:14.921Z,43.00
2019-04-27T03:27:30.416Z,39.80
2019-04-27T03:29:42.370Z,27.93
2019-04-27T03:31:54.616Z,39.83
2019-04-27T03:34:05.939Z,45.20
2019-04-27T03:36:21.436Z,42.15
2019-04-27T03:38:30.591Z,36.42
2019-04-27T03:40:41.939Z,43.40
2019-04-27T03:42:53.739Z,30.72
2019-04-27T03:45:10.433Z,36.03
2019-04-27T03:47:24.052Z,38.20
2019-04-27T03:49:38.721Z,37.80
2019-04-27T03:51:55.408Z,33.42
2019-04-27T03:54:21.554Z,39.80
2019-04-27T03:56:32.834Z,43.38
2019-04-27T03:58:44.497Z,30.15
2019-04-27T04:00:55.288Z,33.10
2019-04-27T04:03:06.532Z,36.70
2019-04-27T04:05:19.652Z,34.33
2019-04-27T04:07:30.270Z,34.73
2019-04-27T04:09:44.317Z,30.57
2019-04-27T04:12:02.319Z,35.00
2019-04-27T04:14:20.133Z,38.85
2019-04-27T04:16:40.214Z,33.13
2019-04-27T04:19:00.389Z,27.93
2019-04-27T04:21:09.677Z,31.87
2019-04-27T04:23:20.621Z,33.63
2019-04-27T04:25:35.667Z,34.70
2019-04-27T04:27:50.677Z,36.17
2019-04-27T04:30:03.219Z,29.45
2019-04-27T04:32:12.941Z,27.98
2019-04-27T04:34:25.422Z,33.48
2019-04-27T04:36:35.440Z,29.72
2019-04-27T04:38:47.140Z,30.35
2019-04-27T04:41:01.888Z,24.82
2019-04-27T04:43:19.934Z,28.70
2019-04-27T04:45:31.810Z,34.43
2019-04-27T04:47:46.370Z,23.57
2019-04-27T04:50:10.224Z,26.12
2019-04-27T04:52:10.503Z,26.90
2019-04-27T04:54:24.809Z,27.40
2019-04-27T04:56:39.753Z,28.15
2019-04-27T04:58:53.233Z,29.18
2019-04-27T05:01:12.275Z,32.38
2019-04-27T05:03:15.926Z,22.00
2019-04-27T05:05:27.183Z,26.05
2019-04-27T05:07:38.760Z,24.23
2019-04-27T05:09:50.022Z,26.87
2019-04-27T05:12:00.677Z,23.62
2019-04-27T05:14:10.282Z,25.10
2019-04-27T05:16:21.695Z,24.87
2019-04-27T05:18:31.458Z,19.57
2019-04-27T05:20:46.220Z,22.75
2019-04-27T05:22:59.419Z,22.02
2019-04-27T05:25:10.975Z,27.95
2019-04-27T05:27:28.931Z,24.92
2019-04-27T05:29:39.044Z,21.77
2019-04-27T05:31:50.077Z,28.00
2019-04-27T05:33:59.918Z,21.70
2019-04-27T05:36:09.476Z,25.08
2019-04-27T05:38:22.057Z,16.73
2019-04-27T05:40:32.587Z,21.42
2019-04-27T05:42:43.434Z,19.67
2019-04-27T05:45:24.450Z,22.00
2019-04-27T05:47:43.361Z,15.78
2019-04-27T05:49:55.585Z,19.37
2019-04-27T05:52:14.460Z,22.98
2019-04-27T05:54:22.546Z,23.05
2019-04-27T05:56:38.998Z,26.27
2019-04-27T05:58:53.375Z,18.67
2019-04-27T06:01:03.471Z,22.58
2019-04-27T06:03:13.646Z,21.00
2019-04-27T06:05:24.143Z,23.83
2019-04-27T06:07:35.699Z,21.30
2019-04-27T06:09:49.274Z,23.98
2019-04-27T06:11:59.647Z,24.45
2019-04-27T06:14:09.768Z,27.17
2019-04-27T06:16:24.059Z,22.77
2019-04-27T06:18:33.573Z,24.55
2019-04-27T06:20:54.819Z,21.25
2019-04-27T06:22:54.849Z,27.85
2019-04-27T06:25:05.734Z,19.65
2019-04-27T06:27:15.556Z,27.20
2019-04-27T06:29:24.840Z,23.40
2019-04-27T06:31:34.915Z,28.67
2019-04-27T06:33:44.491Z,26.25
2019-04-27T06:35:55.158Z,28.65
2019-04-27T06:38:04.955Z,26.80
2019-04-27T06:40:16.526Z,24.90
2019-04-27T06:42:26.314Z,21.55
2019-04-27T06:44:36.313Z,29.95
2019-04-27T06:46:49.015Z,27.17
2019-04-27T06:48:59.396Z,23.67
2019-04-27T06:51:10.890Z,30.75
2019-04-27T06:53:23.523Z,27.87
2019-04-27T06:55:33.606Z,30.95
2019-04-27T06:57:43.186Z,23.75
2019-04-27T06:59:53.966Z,25.70
2019-04-27T07:02:06.446Z,27.85
2019-04-27T07:04:17.128Z,21.23
2019-04-27T07:06:28.603Z,29.20
2019-04-27T07:08:40.145Z,28.70
2019-04-27T07:10:49.580Z,27.30
2019-04-27T07:12:59.816Z,27.58
2019-04-27T07:15:15.393Z,30.62
2019-04-27T07:17:22.633Z,26.80
2019-04-27T07:19:37.125Z,30.82
2019-04-27T07:21:49.806Z,27.35
2019-04-27T07:24:03.176Z,27.95
2019-04-27T07:26:12.375Z,32.13
2019-04-27T07:28:21.837Z,29.15
2019-04-27T07:30:32.085Z,26.73
2019-04-27T07:32:42.369Z,24.82
2019-04-27T07:34:51.345Z,27.58
2019-04-27T07:37:00.539Z,28.80
2019-04-27T07:39:11.605Z,25.45
2019-04-27T07:41:22.516Z,22.85
2019-04-27T07:43:43.678Z,31.65
2019-04-27T07:45:53.536Z,29.57
2019-04-27T07:48:09.146Z,31.20
2019-04-27T07:50:22.402Z,29.67
2019-04-27T07:52:32.747Z,32.17
2019-04-27T07:54:45.809Z,38.55
2019-04-27T07:56:56.177Z,39.98
2019-04-27T07:59:10.549Z,35.98
2019-04-27T08:01:20.036Z,30.32
2019-04-27T08:03:31.611Z,32.00
2019-04-27T08:05:42.198Z,31.35
2019-04-27T08:07:52.391Z,30.45
2019-04-27T08:10:02.336Z,31.93
2019-04-27T08:12:12.965Z,32.25
2019-04-27T08:14:23.304Z,31.45
2019-04-27T08:16:36.433Z,27.55
2019-04-27T08:18:51.542Z,29.48
2019-04-27T08:21:02.762Z,28.90
2019-04-27T08:23:14.168Z,29.57
2019-04-27T08:25:25.878Z,30.30
2019-04-27T08:27:41.741Z,33.63
2019-04-27T08:30:00.736Z,30.27
2019-04-27T08:32:19.601Z,27.42
2019-04-27T08:34:37.517Z,32.50
2019-04-27T08:36:47.879Z,30.80
2019-04-27T08:38:59.783Z,33.40
2019-04-27T08:41:12.969Z,26.33
2019-04-27T08:43:23.716Z,27.87
2019-04-27T08:45:34.909Z,27.00
2019-04-27T08:47:49.498Z,27.00
2019-04-27T08:49:59.253Z,31.17
2019-04-27T08:52:10.833Z,30.15
2019-04-27T08:54:22.292Z,31.17
2019-04-27T08:56:32.219Z,27.93
2019-04-27T08:58:42.274Z,31.90
2019-04-27T09:00:52.575Z,30.48
2019-04-27T09:03:03.687Z,34.10
2019-04-27T09:05:13.416Z,32.78
2019-04-27T09:07:39.608Z,28.35
2019-04-27T09:09:49.901Z,33.23
2019-04-27T09:11:59.598Z,30.48
2019-04-27T09:14:13.437Z,30.85
2019-04-27T09:16:30.775Z,30.85
2019-04-27T09:18:41.085Z,33.08
2019-04-27T09:20:58.772Z,31.00
2019-04-27T09:23:09.728Z,36.10
2019-04-27T09:25:19.362Z,38.25
2019-04-27T09:27:29.634Z,36.80
2019-04-27T09:29:40.685Z,35.25
2019-04-27T09:31:56.238Z,31.07
2019-04-27T09:34:08.361Z,32.45
2019-04-27T09:36:17.883Z,32.93
2019-04-27T09:38:29.754Z,31.90
2019-04-27T09:40:38.997Z,31.33
2019-04-27T09:42:48.908Z,30.43
2019-04-27T09:44:58.382Z,31.55
2019-04-27T09:47:10.433Z,34.78
2019-04-27T09:49:26.357Z,33.00
2019-04-27T09:51:38.634Z,34.20
2019-04-27T09:53:49.568Z,33.85
2019-04-27T09:56:05.726Z,31.97
2019-04-27T09:58:19.277Z,30.62
2019-04-27T10:00:51.098Z,31.75
2019-04-27T10:06:29.945Z,33.65
2019-04-27T10:11:19.659Z,30.43
2019-04-27T10:13:30.159Z,36.05
2019-04-27T10:15:39.525Z,30.75
2019-04-27T10:17:48.635Z,29.95
2019-04-27T10:19:57.929Z,30.57
2019-04-27T10:22:06.874Z,31.65
2019-04-27T10:24:18.581Z,29.63
2019-04-27T10:26:28.142Z,30.90
2019-04-27T10:28:37.325Z,31.50
2019-04-27T10:30:45.812Z,32.23
2019-04-27T10:32:54.053Z,31.73
2019-04-27T10:35:01.949Z,36.25
2019-04-27T10:37:23.793Z,35.75
2019-04-27T10:39:43.018Z,32.17
2019-04-27T10:41:53.202Z,31.55
2019-04-27T10:44:01.423Z,32.80
2019-04-27T10:46:09.708Z,31.95
2019-04-27T10:48:18.119Z,34.50
2019-04-27T10:50:26.677Z,34.45
2019-04-27T10:52:34.854Z,29.55
2019-04-27T10:54:43.947Z,36.65
2019-04-27T10:56:52.199Z,33.35
2019-04-27T10:59:00.685Z,32.20
2019-04-27T11:03:55.445Z,34.05
2019-04-27T11:06:26.166Z,29.85
2019-04-27T11:08:34.644Z,32.98
2019-04-27T11:10:43.144Z,33.67
2019-04-27T11:12:51.538Z,35.58
2019-04-27T11:15:00.380Z,36.73
2019-04-27T11:17:10.616Z,38.35
2019-04-27T11:19:19.887Z,38.88
2019-04-27T11:21:27.790Z,40.55
2019-04-27T11:23:35.967Z,44.10
2019-04-27T11:28:19.716Z,42.10
2019-04-27T11:30:30.344Z,44.38
2019-04-27T11:32:38.273Z,41.95
2019-04-27T11:35:05.743Z,47.48
2019-04-27T11:37:15.602Z,43.83
2019-04-27T11:39:25.939Z,44.35
2019-04-27T11:41:33.777Z,41.30
2019-04-27T11:43:41.844Z,40.28
2019-04-27T11:45:49.809Z,36.10
2019-04-27T11:47:57.701Z,35.95
2019-04-27T11:50:08.303Z,33.28
2019-04-27T11:52:16.311Z,41.98
2019-04-27T11:54:25.563Z,34.70
2019-04-27T11:56:36.195Z,38.85
2019-04-27T11:58:44.528Z,29.92
2019-04-27T12:00:52.500Z,35.43
2019-04-27T12:03:00.423Z,33.53
2019-04-27T12:05:09.147Z,38.17
2019-04-27T12:07:16.950Z,39.42
2019-04-27T12:09:24.764Z,36.13
2019-04-27T12:11:32.555Z,31.57
2019-04-27T12:13:40.349Z,34.18
2019-04-27T12:15:48.247Z,29.98
2019-04-27T12:17:57.502Z,34.75
2019-04-27T12:20:10.479Z,31.93
2019-04-27T12:22:18.549Z,38.00
2019-04-27T12:24:26.822Z,31.33
2019-04-27T12:26:39.561Z,30.70
2019-04-27T12:28:51.860Z,32.33
2019-04-27T12:31:01.300Z,33.23
2019-04-27T12:33:09.630Z,33.53
2019-04-27T12:35:17.570Z,27.52
2019-04-27T12:37:26.834Z,28.57
2019-04-27T12:39:34.686Z,31.65
2019-04-27T12:41:46.152Z,22.80
2019-04-27T12:43:55.993Z,28.05
2019-04-27T12:46:05.832Z,29.35
2019-04-27T12:48:15.096Z,27.60
2019-04-27T12:50:23.222Z,32.42
2019-04-27T12:52:31.154Z,24.43
2019-04-27T12:54:56.759Z,28.27
2019-04-27T12:57:22.663Z,28.57
2019-04-27T12:59:48.117Z,27.02
2019-04-27T13:01:56.442Z,25.82
2019-04-27T13:04:04.408Z,25.85
2019-04-27T13:06:12.301Z,25.55
2019-04-27T13:08:20.844Z,22.93
2019-04-27T13:10:28.746Z,20.00
2019-04-27T13:12:36.536Z,20.72
2019-04-27T13:14:45.755Z,22.60
2019-04-27T13:16:53.842Z,23.15
2019-04-27T13:19:01.735Z,22.62
2019-04-27T13:21:09.559Z,19.35
2019-04-27T13:23:17.452Z,21.62
2019-04-27T13:25:25.478Z,21.00
2019-04-27T13:27:33.789Z,20.68
2019-04-27T13:29:42.798Z,19.82
2019-04-27T13:31:50.766Z,22.40
2019-04-27T13:33:58.775Z,23.57
2019-04-27T13:36:07.625Z,21.62
2019-04-27T13:38:18.062Z,32.50
2019-04-27T13:40:26.098Z,33.00
2019-04-27T13:42:41.587Z,28.12
2019-04-27T13:44:49.810Z,28.27
2019-04-27T13:47:17.077Z,21.45
2019-04-27T13:49:30.826Z,21.82
2019-04-27T13:51:40.361Z,25.20
2019-04-27T13:53:48.176Z,24.43
2019-04-27T13:55:56.896Z,20.30
2019-04-27T13:58:05.721Z,16.40
2019-04-27T14:00:14.808Z,21.27
2019-04-27T14:02:24.251Z,23.30
2019-04-27T14:04:32.388Z,22.58
2019-04-27T14:06:42.004Z,23.65
2019-04-27T14:08:49.970Z,20.45
2019-04-27T14:11:01.078Z,19.87
2019-04-27T14:13:10.912Z,18.87
2019-04-27T14:15:18.712Z,19.05
2019-04-27T14:17:26.640Z,20.25
2019-04-27T14:19:35.259Z,16.40
2019-04-27T14:21:43.674Z,21.80
2019-04-27T14:23:51.679Z,19.32
2019-04-27T14:26:00.412Z,16.97
2019-04-27T14:28:11.150Z,18.37
2019-04-27T14:30:19.687Z,21.02
2019-04-27T14:32:28.737Z,16.50
2019-04-27T14:34:36.825Z,18.02
2019-04-27T14:36:45.101Z,20.55
2019-04-27T14:38:53.278Z,19.05
2019-04-27T14:41:01.380Z,19.77
2019-04-27T14:43:09.445Z,19.42
2019-04-27T14:45:18.911Z,23.87
2019-04-27T14:47:29.929Z,25.05
2019-04-27T14:49:39.084Z,24.85
2019-04-27T14:51:48.659Z,22.98
2019-04-27T14:54:01.901Z,22.40
2019-04-27T14:56:11.507Z,21.05
2019-04-27T14:58:20.108Z,18.42
2019-04-27T15:00:28.783Z,21.23
2019-04-27T15:02:40.832Z,26.85
2019-04-27T15:04:49.435Z,27.87
2019-04-27T15:07:00.749Z,23.40
2019-04-27T15:09:13.403Z,22.65
2019-04-27T15:11:19.776Z,21.27
2019-04-27T15:13:28.669Z,21.05
2019-04-27T15:15:38.233Z,23.32
2019-04-27T15:17:47.192Z,23.70
2019-04-27T15:20:01.542Z,20.48
2019-04-27T15:22:12.702Z,34.65
2019-04-27T15:24:21.996Z,24.27
2019-04-27T15:26:30.857Z,23.85
2019-04-27T15:28:44.707Z,41.88
2019-04-27T15:30:59.559Z,26.20
2019-04-27T15:33:19.086Z,28.42
2019-04-27T15:35:40.495Z,30.15
2019-04-27T15:37:57.043Z,17.57
2019-04-27T15:40:24.897Z,16.97
2019-04-27T15:42:34.914Z,23.02
2019-04-27T15:44:44.213Z,18.12
2019-04-27T15:46:53.688Z,16.67
2019-04-27T15:49:03.115Z,17.27
2019-04-27T15:51:18.351Z,14.13
2019-04-27T15:53:25.827Z,16.25
2019-04-27T15:55:36.981Z,15.68
2019-04-27T15:57:46.899Z,15.18
2019-04-27T15:59:58.457Z,15.00
2019-04-27T16:02:11.809Z,13.05
2019-04-27T16:04:17.879Z,14.35
2019-04-27T16:06:28.215Z,14.13
2019-04-27T16:08:38.248Z,13.18
2019-04-27T16:10:48.738Z,13.62
2019-04-27T16:17:21.355Z,14.28
2019-04-27T16:19:32.014Z,15.20
2019-04-27T16:21:47.808Z,16.30
2019-04-27T16:23:53.304Z,15.75
2019-04-27T16:26:05.224Z,18.98
2019-04-27T16:28:13.502Z,18.60
2019-04-27T16:30:21.768Z,14.85
2019-04-27T16:32:30.942Z,16.95
2019-04-27T16:34:41.215Z,15.60
2019-04-27T16:36:52.331Z,18.02
2019-04-27T16:39:03.749Z,17.48
2019-04-27T16:41:14.158Z,21.85
2019-04-27T16:43:23.811Z,29.48
2019-04-27T16:45:34.109Z,29.02
2019-04-27T16:47:42.388Z,30.25
2019-04-27T16:49:50.625Z,28.60
2019-04-27T16:51:59.207Z,30.57
2019-04-27T16:54:11.176Z,30.32
2019-04-27T16:56:20.498Z,29.27
2019-04-27T16:58:28.547Z,30.37
2019-04-27T17:00:40.691Z,29.75
2019-04-27T17:02:49.196Z,36.20
2019-04-27T17:04:58.619Z,33.25
2019-04-27T17:07:08.710Z,34.10
2019-04-27T17:09:16.173Z,37.20
2019-04-27T17:11:24.095Z,33.85
2019-04-27T17:13:34.273Z,36.08
2019-04-27T17:15:55.001Z,35.28
2019-04-27T17:18:24.379Z,32.03
2019-04-27T17:20:32.620Z,37.45
2019-04-27T17:22:40.442Z,35.40
2019-04-27T17:24:49.347Z,33.63
2019-04-27T17:26:59.040Z,37.20
2019-04-27T17:29:16.470Z,35.08
2019-04-27T17:31:23.013Z,29.80
2019-04-27T17:33:38.669Z,36.25
2019-04-27T17:35:46.496Z,39.35
2019-04-27T17:37:54.535Z,39.63
2019-04-27T17:40:02.347Z,39.70
2019-04-27T17:42:11.387Z,36.53
2019-04-27T17:44:23.151Z,40.30
2019-04-27T17:46:31.520Z,42.85
2019-04-27T17:48:39.601Z,43.28
2019-04-27T17:50:48.966Z,43.48
2019-04-27T17:52:59.092Z,37.78
2019-04-27T17:55:12.253Z,42.10
2019-04-27T17:57:22.237Z,43.00
2019-04-27T17:59:30.992Z,42.70
2019-04-27T18:01:39.745Z,29.07
2019-04-27T18:03:58.518Z,40.92
2019-04-27T18:05:58.186Z,46.10
2019-04-27T18:08:08.285Z,53.40
2019-04-27T18:10:21.148Z,45.25
2019-04-27T18:12:26.073Z,47.08
2019-04-27T18:14:47.845Z,46.75
2019-04-27T18:16:55.765Z,46.63
2019-04-27T18:19:11.967Z,48.38
2019-04-27T18:21:21.438Z,51.10
2019-04-27T18:23:51.868Z,53.28
2019-04-27T18:25:57.689Z,48.92
2019-04-27T18:28:14.682Z,49.25
2019-04-27T18:30:19.186Z,50.65
2019-04-27T18:32:27.740Z,49.00
2019-04-27T18:34:36.555Z,49.75
2019-04-27T18:36:44.975Z,46.77
2019-04-27T18:38:52.974Z,44.73
2019-04-27T18:41:02.980Z,40.78
2019-04-27T18:43:13.816Z,42.85
2019-04-27T18:45:21.772Z,40.88
2019-04-27T18:47:31.238Z,44.45
2019-04-27T18:49:53.842Z,41.05
2019-04-27T18:52:19.920Z,48.78
2019-04-27T18:54:28.783Z,53.73
2019-04-27T18:56:38.428Z,60.98
2019-04-27T18:58:47.634Z,59.93
2019-04-27T19:00:55.791Z,55.63
2019-04-27T19:03:05.018Z,53.85
2019-04-27T19:05:13.314Z,55.67
2019-04-27T19:07:21.126Z,73.28
2019-04-27T19:09:29.016Z,131.97
2019-04-27T19:11:38.272Z,58.87
2019-04-27T19:13:46.510Z,62.38
2019-04-27T19:15:54.470Z,74.77
2019-04-27T19:18:03.536Z,58.55
2019-04-27T19:20:12.704Z,57.38
2019-04-27T19:22:20.566Z,57.48
2019-04-27T19:24:28.530Z,61.35
2019-04-27T19:26:54.967Z,69.77
2019-04-27T19:29:14.802Z,59.10
2019-04-27T19:31:24.373Z,64.00
2019-04-27T19:33:32.281Z,59.65
2019-04-27T19:35:40.178Z,59.88
2019-04-27T19:37:48.630Z,68.30
2019-04-27T19:39:58.249Z,59.42
2019-04-27T19:42:06.238Z,62.62
2019-04-27T19:44:14.109Z,63.50
2019-04-27T19:46:22.030Z,48.92
2019-04-27T19:48:29.920Z,68.40
2019-04-27T19:50:39.281Z,64.05
2019-04-27T19:52:47.190Z,73.75
2019-04-27T19:54:55.007Z,66.77
2019-04-27T19:57:03.013Z,69.25
2019-04-27T19:59:12.587Z,59.33
2019-04-27T20:01:25.217Z,51.70
2019-04-27T20:03:48.242Z,71.72
2019-04-27T20:05:56.482Z,68.70
2019-04-27T20:08:06.015Z,68.28
2019-04-27T20:10:14.437Z,71.60
2019-04-27T20:12:22.266Z,64.77
2019-04-27T20:14:32.148Z,67.50
2019-04-27T20:16:41.749Z,70.00
2019-04-27T20:18:51.630Z,72.25
2019-04-27T20:21:01.042Z,65.12
2019-04-27T20:23:09.226Z,67.70
2019-04-27T20:25:17.412Z,61.08
2019-04-27T20:27:25.675Z,66.28
2019-04-27T20:29:33.876Z,60.78
2019-04-27T20:31:43.059Z,65.50
2019-04-27T20:33:53.764Z,72.42
2019-04-27T20:36:01.355Z,70.80
2019-04-27T20:38:11.150Z,67.70
2019-04-27T20:40:21.604Z,62.55
2019-04-27T20:42:31.293Z,62.88
2019-04-27T20:44:41.392Z,58.90
2019-04-27T20:46:51.364Z,60.35
2019-04-27T20:49:01.265Z,56.68
2019-04-27T20:51:11.153Z,57.62
2019-04-27T20:53:21.042Z,60.17
2019-04-27T20:55:29.490Z,58.02
2019-04-27T20:57:37.710Z,56.50
2019-04-27T20:59:45.804Z,58.52
2019-04-27T21:01:53.963Z,55.48
2019-04-27T21:04:03.931Z,60.33
2019-04-27T21:06:23.015Z,59.30
2019-04-27T21:08:32.449Z,63.63
2019-04-27T21:10:41.297Z,67.15
2019-04-27T21:12:49.741Z,58.60
2019-04-27T21:14:57.732Z,70.05
2019-04-27T21:17:05.850Z,73.75
2019-04-27T21:19:14.133Z,73.22
2019-04-27T21:21:22.221Z,66.80
2019-04-27T21:23:31.194Z,65.90
2019-04-27T21:25:42.075Z,64.32
2019-04-27T21:27:51.316Z,62.62
2019-04-27T21:29:59.603Z,59.38
2019-04-27T21:32:08.014Z,63.95
2019-04-27T21:34:15.928Z,67.20
2019-04-27T21:36:23.859Z,58.73
2019-04-27T21:38:31.673Z,58.90
2019-04-27T21:40:40.854Z,60.23
2019-04-27T21:42:51.066Z,61.23
2019-04-27T21:45:01.264Z,62.90
2019-04-27T21:47:11.212Z,58.35
2019-04-27T21:49:21.235Z,58.85
2019-04-27T21:51:30.097Z,53.68
2019-04-27T21:53:46.768Z,61.20
2019-04-27T21:56:06.740Z,58.17
2019-04-27T21:58:28.379Z,55.65
2019-04-27T22:00:42.738Z,59.27
2019-04-27T22:02:52.699Z,57.90
2019-04-27T22:05:01.118Z,56.70
2019-04-27T22:07:11.492Z,60.83
2019-04-27T22:09:20.220Z,62.70
2019-04-27T22:11:28.222Z,63.58
2019-04-27T22:13:36.212Z,58.95
2019-04-27T22:15:44.028Z,64.03
2019-04-27T22:17:52.363Z,58.73
2019-04-27T22:20:01.794Z,60.05
2019-04-27T22:22:13.243Z,58.02
2019-04-27T22:24:29.471Z,59.35
2019-04-27T22:26:37.530Z,56.45
2019-04-27T22:28:49.229Z,52.43
2019-04-27T22:30:55.526Z,52.15
2019-04-27T22:33:03.714Z,51.88
2019-04-27T22:35:13.222Z,51.55
2019-04-27T22:37:21.412Z,49.88
2019-04-27T22:39:31.090Z,50.25
2019-04-27T22:41:41.675Z,54.42
2019-04-27T22:44:07.529Z,53.48
2019-04-27T22:46:33.673Z,55.10
2019-04-27T22:48:41.647Z,57.33
2019-04-27T22:50:51.367Z,56.63
2019-04-27T22:52:59.302Z,56.58
2019-04-27T22:55:08.499Z,57.00
2019-04-27T22:57:18.415Z,48.73
2019-04-27T22:59:45.211Z,51.25
2019-04-27T23:01:55.751Z,53.80
2019-04-27T23:04:05.353Z,56.25
2019-04-27T23:06:14.224Z,53.00
2019-04-27T23:08:23.201Z,51.13
2019-04-27T23:10:32.638Z,47.33
2019-04-27T23:12:41.976Z,43.50
2019-04-27T23:14:50.299Z,48.23
2019-04-27T23:17:00.811Z,47.98
2019-04-27T23:19:10.885Z,50.45
2019-04-27T23:21:20.785Z,49.23
2019-04-27T23:23:31.025Z,46.53
2019-04-27T23:25:42.378Z,49.23
2019-04-27T23:27:51.278Z,48.42
2019-04-27T23:29:59.210Z,46.13
2019-04-27T23:32:11.864Z,48.52
2019-04-27T23:34:21.657Z,44.98
2019-04-27T23:36:31.720Z,43.58
2019-04-27T23:38:40.808Z,45.58
2019-04-27T23:40:49.396Z,41.35
2019-04-27T23:42:57.492Z,48.65
2019-04-27T23:45:08.055Z,45.20
2019-04-27T23:47:16.233Z,47.38
2019-04-27T23:49:24.330Z,45.08
2019-04-27T23:51:32.186Z,44.90
2019-04-27T23:53:41.774Z,45.43
2019-04-27T23:55:50.283Z,46.60
2019-04-27T23:57:59.456Z,43.02
